createdAt,value
2022-12-25T00:01:21.648Z,100.00
2022-12-25T00:03:48.964Z,100.00
2022-12-25T00:06:15.689Z,100.00
2022-12-25T00:08:42.619Z,100.00
2022-12-25T00:11:14.112Z,100.00
2022-12-25T00:13:41.349Z,100.00
2022-12-25T00:16:18.738Z,100.00
2022-12-25T00:18:46.060Z,100.00
2022-12-25T00:21:13.275Z,100.00
2022-12-25T00:23:40.236Z,100.00
2022-12-25T00:26:10.252Z,100.00
2022-12-25T00:28:37.235Z,100.00
2022-12-25T00:31:13.599Z,100.00
2022-12-25T00:33:44.031Z,100.00
2022-12-25T00:36:11.996Z,100.00
2022-12-25T00:38:40.379Z,100.00
2022-12-25T00:41:15.853Z,100.00
2022-12-25T00:43:42.483Z,100.00
2022-12-25T00:46:11.090Z,100.00
2022-12-25T00:48:38.503Z,100.00
2022-12-25T00:51:07.521Z,100.00
2022-12-25T00:53:34.099Z,100.00
2022-12-25T00:56:03.936Z,100.00
2022-12-25T00:58:32.330Z,100.00
2022-12-25T01:00:59.091Z,100.00
2022-12-25T01:03:26.642Z,100.00
2022-12-25T01:06:01.771Z,100.00
2022-12-25T01:08:30.760Z,100.00
2022-12-25T01:11:00.448Z,100.00
2022-12-25T01:13:28.452Z,100.00
2022-12-25T01:15:55.130Z,100.00
2022-12-25T01:18:23.608Z,100.00
2022-12-25T01:20:50.995Z,100.00
2022-12-25T01:23:17.717Z,100.00
2022-12-25T01:25:45.575Z,100.00
2022-12-25T01:28:12.199Z,100.00
2022-12-25T01:30:40.428Z,100.00
2022-12-25T01:33:07.099Z,100.00
2022-12-25T01:35:33.678Z,100.00
2022-12-25T01:38:00.330Z,100.00
2022-12-25T01:40:27.196Z,100.00
2022-12-25T01:42:53.781Z,100.00
2022-12-25T01:45:34.639Z,100.00
2022-12-25T01:48:05.058Z,100.00
2022-12-25T01:50:32.790Z,100.00
2022-12-25T01:52:59.496Z,100.00
2022-12-25T01:55:27.865Z,100.00
2022-12-25T01:57:54.881Z,100.00
2022-12-25T02:00:21.543Z,100.00
2022-12-25T02:02:49.027Z,100.00
2022-12-25T02:05:30.582Z,100.00
2022-12-25T02:08:02.607Z,100.00
2022-12-25T02:10:29.201Z,100.00
2022-12-25T02:12:56.139Z,100.00
2022-12-25T02:15:30.009Z,100.00
2022-12-25T02:18:09.364Z,100.00
2022-12-25T02:21:09.110Z,100.00
2022-12-25T02:24:08.438Z,100.00
2022-12-25T02:26:56.927Z,100.00
2022-12-25T02:29:44.924Z,100.00
2022-12-25T02:32:40.727Z,100.00
2022-12-25T02:35:39.564Z,100.00
2022-12-25T02:38:33.517Z,100.00
2022-12-25T02:41:06.957Z,100.00
2022-12-25T02:43:57.646Z,100.00
2022-12-25T02:46:43.380Z,100.00
2022-12-25T02:49:35.682Z,100.00
2022-12-25T02:52:29.001Z,100.00
2022-12-25T02:55:20.338Z,100.00
2022-12-25T02:58:10.573Z,100.00
2022-12-25T03:01:01.487Z,100.00
2022-12-25T03:03:51.738Z,100.00
2022-12-25T03:06:39.230Z,100.00
2022-12-25T03:09:27.355Z,100.00
2022-12-25T03:12:15.601Z,100.00
2022-12-25T03:15:00.740Z,100.00
2022-12-25T03:17:27.403Z,100.00
2022-12-25T03:20:12.739Z,100.00
2022-12-25T03:23:01.138Z,100.00
2022-12-25T03:25:47.354Z,100.00
2022-12-25T03:28:14.398Z,100.00
2022-12-25T03:31:20.191Z,100.00
2022-12-25T03:34:22.449Z,100.00
2022-12-25T03:37:32.448Z,100.00
2022-12-25T03:40:58.625Z,100.00
2022-12-25T03:43:59.148Z,100.00
2022-12-25T03:46:51.444Z,100.00
2022-12-25T03:49:58.061Z,100.00
2022-12-25T03:52:46.980Z,100.00
2022-12-25T03:55:34.489Z,100.00
2022-12-25T03:58:19.734Z,100.00
2022-12-25T04:01:04.582Z,100.00
2022-12-25T04:03:49.882Z,100.00
2022-12-25T04:06:34.987Z,100.00
2022-12-25T04:09:20.078Z,100.00
2022-12-25T04:12:05.581Z,100.00
2022-12-25T04:14:50.795Z,100.00
2022-12-25T04:17:35.999Z,100.00
2022-12-25T04:20:20.850Z,100.00
2022-12-25T04:23:06.137Z,100.00
2022-12-25T04:25:51.152Z,100.00
2022-12-25T04:28:36.024Z,100.00
2022-12-25T04:31:21.249Z,100.00
2022-12-25T04:34:06.306Z,100.00
2022-12-25T04:36:32.953Z,100.00
2022-12-25T04:38:59.501Z,100.00
2022-12-25T04:41:26.127Z,100.00
2022-12-25T04:43:52.674Z,100.00
2022-12-25T04:46:19.391Z,100.00
2022-12-25T04:48:46.123Z,100.00
2022-12-25T04:51:18.235Z,100.00
2022-12-25T04:53:46.052Z,100.00
2022-12-25T04:56:13.453Z,100.00
2022-12-25T04:58:40.323Z,100.00
2022-12-25T05:01:07.176Z,100.00
2022-12-25T05:03:34.249Z,100.00
2022-12-25T05:06:01.877Z,100.00
2022-12-25T05:08:29.975Z,100.00
2022-12-25T05:10:56.554Z,100.00
2022-12-25T05:13:23.648Z,100.00
2022-12-25T05:15:51.261Z,100.00
2022-12-25T05:18:18.062Z,100.00
2022-12-25T05:20:51.853Z,100.00
2022-12-25T05:23:18.468Z,100.00
2022-12-25T05:25:45.032Z,100.00
2022-12-25T05:28:11.601Z,100.00
2022-12-25T05:30:38.275Z,100.00
2022-12-25T05:33:05.057Z,100.00
2022-12-25T05:35:31.700Z,100.00
2022-12-25T05:37:58.597Z,100.00
2022-12-25T05:40:25.193Z,100.00
2022-12-25T05:42:51.764Z,100.00
2022-12-25T05:45:18.426Z,100.00
2022-12-25T05:47:45.050Z,100.00
2022-12-25T05:50:11.627Z,100.00
2022-12-25T05:52:38.332Z,100.00
2022-12-25T05:55:05.646Z,100.00
2022-12-25T05:57:33.025Z,100.00
2022-12-25T05:59:59.629Z,100.00
2022-12-25T06:02:26.628Z,100.00
2022-12-25T06:04:53.374Z,100.00
2022-12-25T06:07:20.009Z,100.00
2022-12-25T06:09:46.600Z,100.00
2022-12-25T06:12:13.296Z,100.00
2022-12-25T06:14:39.866Z,100.00
2022-12-25T06:17:06.463Z,100.00
2022-12-25T06:19:33.048Z,100.00
2022-12-25T06:21:59.677Z,100.00
2022-12-25T06:24:26.612Z,100.00
2022-12-25T06:26:53.264Z,100.00
2022-12-25T06:29:19.885Z,100.00
2022-12-25T06:31:46.506Z,100.00
2022-12-25T06:34:16.417Z,100.00
2022-12-25T06:36:43.338Z,100.00
2022-12-25T06:39:10.168Z,100.00
2022-12-25T06:41:36.878Z,100.00
2022-12-25T06:44:03.524Z,100.00
2022-12-25T06:46:30.962Z,100.00
2022-12-25T06:48:58.631Z,100.00
2022-12-25T06:51:28.243Z,100.00
2022-12-25T06:53:55.718Z,100.00
2022-12-25T06:56:24.928Z,100.00
2022-12-25T06:58:54.156Z,100.00
2022-12-25T07:01:36.358Z,100.00
2022-12-25T07:04:06.084Z,100.00
2022-12-25T07:06:32.902Z,100.00
2022-12-25T07:08:59.519Z,100.00
2022-12-25T07:11:26.346Z,100.00
2022-12-25T07:13:52.921Z,100.00
2022-12-25T07:16:20.194Z,100.00
2022-12-25T07:18:46.966Z,100.00
2022-12-25T07:21:17.063Z,100.00
2022-12-25T07:23:45.202Z,100.00
2022-12-25T07:26:13.166Z,100.00
2022-12-25T07:28:40.189Z,100.00
2022-12-25T07:31:10.875Z,100.00
2022-12-25T07:33:37.507Z,100.00
2022-12-25T07:36:05.539Z,100.00
2022-12-25T07:38:32.554Z,100.00
2022-12-25T07:40:59.367Z,100.00
2022-12-25T07:43:26.494Z,100.00
2022-12-25T07:46:00.582Z,100.00
2022-12-25T07:48:27.932Z,100.00
2022-12-25T07:50:59.608Z,100.00
2022-12-25T07:53:26.699Z,100.00
2022-12-25T07:56:04.751Z,100.00
2022-12-25T07:58:31.626Z,100.00
2022-12-25T08:01:11.727Z,100.00
2022-12-25T08:03:38.678Z,100.00
2022-12-25T08:06:07.808Z,100.00
2022-12-25T08:08:36.062Z,100.00
2022-12-25T08:11:03.389Z,100.00
2022-12-25T08:13:31.917Z,100.00
2022-12-25T08:16:00.221Z,100.00
2022-12-25T08:18:30.327Z,100.00
2022-12-25T08:21:02.727Z,100.00
2022-12-25T08:23:29.614Z,100.00
2022-12-25T08:26:05.450Z,100.00
2022-12-25T08:28:34.123Z,100.00
2022-12-25T08:31:10.565Z,100.00
2022-12-25T08:33:37.820Z,100.00
2022-12-25T08:36:06.729Z,100.00
2022-12-25T08:38:33.474Z,100.00
2022-12-25T08:41:00.368Z,100.00
2022-12-25T08:43:27.064Z,100.00
2022-12-25T08:45:53.675Z,100.00
2022-12-25T08:48:20.518Z,100.00
2022-12-25T08:50:51.741Z,100.00
2022-12-25T08:53:19.349Z,100.00
2022-12-25T08:55:46.074Z,100.00
2022-12-25T08:58:14.610Z,100.00
2022-12-25T09:00:41.464Z,100.00
2022-12-25T09:03:08.389Z,100.00
2022-12-25T09:05:36.040Z,100.00
2022-12-25T09:08:02.618Z,100.00
2022-12-25T09:10:29.610Z,100.00
2022-12-25T09:12:56.262Z,100.00
2022-12-25T09:15:22.854Z,100.00
2022-12-25T09:17:49.529Z,100.00
2022-12-25T09:20:16.168Z,100.00
2022-12-25T09:22:42.822Z,100.00
2022-12-25T09:25:09.901Z,100.00
2022-12-25T09:27:36.493Z,100.00
2022-12-25T09:30:04.057Z,100.00
2022-12-25T09:32:30.707Z,100.00
2022-12-25T09:34:57.286Z,100.00
2022-12-25T09:37:23.888Z,96.89
2022-12-25T09:39:50.463Z,88.98
2022-12-25T09:42:22.470Z,74.25
2022-12-25T09:44:57.747Z,64.99
2022-12-25T09:47:29.543Z,66.60
2022-12-25T09:49:58.868Z,69.54
2022-12-25T09:52:35.574Z,71.51
2022-12-25T09:55:08.427Z,64.01
2022-12-25T09:57:35.001Z,58.63
2022-12-25T10:00:01.629Z,55.63
2022-12-25T10:02:36.925Z,52.78
2022-12-25T10:05:17.816Z,49.09
2022-12-25T10:07:54.674Z,48.76
2022-12-25T10:10:59.636Z,47.52
2022-12-25T10:13:47.769Z,49.32
2022-12-25T10:16:39.374Z,50.50
2022-12-25T10:19:18.990Z,51.88
2022-12-25T10:21:47.271Z,49.96
2022-12-25T10:24:38.518Z,49.16
2022-12-25T10:27:26.382Z,49.49
2022-12-25T10:29:56.860Z,48.94
2022-12-25T10:32:23.513Z,49.68
2022-12-25T10:34:50.702Z,51.28
2022-12-25T10:37:17.473Z,50.12
2022-12-25T10:39:46.981Z,49.79
2022-12-25T10:42:43.786Z,47.12
2022-12-25T10:45:10.631Z,45.60
2022-12-25T10:47:42.496Z,41.68
2022-12-25T10:50:23.022Z,40.67
2022-12-25T10:53:05.208Z,36.70
2022-12-25T10:55:33.016Z,35.79
2022-12-25T10:58:01.940Z,37.14
2022-12-25T11:00:32.116Z,35.75
2022-12-25T11:02:59.655Z,36.07
2022-12-25T11:05:30.108Z,35.46
2022-12-25T11:08:00.072Z,34.40
2022-12-25T11:10:36.532Z,36.92
2022-12-25T11:13:07.529Z,39.10
2022-12-25T11:15:48.516Z,38.20
2022-12-25T11:18:26.821Z,39.70
2022-12-25T11:20:58.960Z,40.59
2022-12-25T11:23:28.339Z,42.96
2022-12-25T11:25:56.257Z,41.82
2022-12-25T11:28:24.169Z,44.55
2022-12-25T11:30:57.925Z,47.69
2022-12-25T11:33:35.116Z,51.30
2022-12-25T11:36:08.952Z,57.72
2022-12-25T11:38:35.593Z,61.73
2022-12-25T11:41:04.471Z,64.00
2022-12-25T11:43:40.396Z,66.90
2022-12-25T11:46:29.059Z,68.96
2022-12-25T11:49:05.439Z,69.48
2022-12-25T11:51:40.849Z,67.49
2022-12-25T11:54:10.412Z,64.09
2022-12-25T11:56:37.884Z,56.88
2022-12-25T11:59:18.379Z,50.06
2022-12-25T12:01:50.037Z,44.61
2022-12-25T12:04:29.626Z,42.67
2022-12-25T12:07:13.287Z,40.33
2022-12-25T12:10:00.527Z,37.49
2022-12-25T12:12:48.879Z,35.63
2022-12-25T12:15:35.866Z,34.12
2022-12-25T12:18:19.107Z,32.30
2022-12-25T12:20:57.189Z,32.50
2022-12-25T12:23:24.212Z,32.76
2022-12-25T12:25:51.788Z,34.03
2022-12-25T12:28:27.559Z,33.87
2022-12-25T12:31:00.944Z,34.15
2022-12-25T12:33:36.410Z,31.31
2022-12-25T12:36:05.411Z,30.84
2022-12-25T12:38:34.017Z,30.86
2022-12-25T12:41:02.884Z,31.13
2022-12-25T12:43:32.584Z,30.85
2022-12-25T12:46:30.062Z,33.63
2022-12-25T12:49:32.740Z,31.80
2022-12-25T12:52:27.236Z,31.20
2022-12-25T12:55:06.165Z,31.22
2022-12-25T12:57:39.598Z,32.92
2022-12-25T13:00:15.529Z,34.49
2022-12-25T13:03:17.600Z,35.56
2022-12-25T13:05:50.336Z,36.93
2022-12-25T13:08:26.329Z,37.75
2022-12-25T13:11:05.489Z,38.89
2022-12-25T13:13:39.942Z,38.97
2022-12-25T13:16:13.590Z,40.34
2022-12-25T13:18:40.264Z,40.33
2022-12-25T13:21:07.490Z,41.20
2022-12-25T13:23:39.056Z,43.70
2022-12-25T13:26:17.526Z,44.72
2022-12-25T13:28:46.332Z,45.33
2022-12-25T13:31:12.860Z,44.91
2022-12-25T13:33:41.055Z,43.91
2022-12-25T13:36:13.341Z,44.09
2022-12-25T13:38:46.096Z,44.94
2022-12-25T13:41:37.345Z,44.95
2022-12-25T13:44:20.667Z,45.67
2022-12-25T13:46:48.255Z,46.53
2022-12-25T13:49:17.371Z,48.36
2022-12-25T13:51:44.184Z,49.88
2022-12-25T13:54:13.147Z,51.32
2022-12-25T13:56:52.004Z,53.16
2022-12-25T13:59:22.010Z,56.26
2022-12-25T14:01:50.307Z,62.27
2022-12-25T14:04:20.850Z,65.35
2022-12-25T14:06:48.240Z,69.13
2022-12-25T14:09:16.120Z,73.11
2022-12-25T14:11:48.767Z,74.80
2022-12-25T14:14:22.301Z,75.75
2022-12-25T14:16:50.833Z,79.40
2022-12-25T14:19:27.834Z,80.95
2022-12-25T14:22:19.769Z,82.53
2022-12-25T14:24:47.343Z,84.39
2022-12-25T14:27:23.878Z,85.87
2022-12-25T14:29:54.035Z,87.89
2022-12-25T14:32:23.978Z,89.73
2022-12-25T14:34:54.234Z,94.80
2022-12-25T14:37:23.914Z,96.21
2022-12-25T14:40:06.748Z,98.68
2022-12-25T14:42:37.173Z,100.00
2022-12-25T14:45:26.789Z,100.00
2022-12-25T14:47:56.233Z,100.00
2022-12-25T14:50:50.947Z,100.00
2022-12-25T14:53:21.533Z,100.00
2022-12-25T14:55:53.937Z,100.00
2022-12-25T14:58:23.574Z,100.00
2022-12-25T15:01:02.862Z,100.00
2022-12-25T15:03:40.358Z,100.00
2022-12-25T15:06:21.771Z,100.00
2022-12-25T15:09:03.048Z,100.00
2022-12-25T15:11:30.127Z,100.00
2022-12-25T15:13:56.707Z,100.00
2022-12-25T15:16:26.264Z,100.00
2022-12-25T15:18:53.694Z,100.00
2022-12-25T15:21:26.521Z,100.00
2022-12-25T15:23:57.955Z,100.00
2022-12-25T15:26:25.291Z,100.00
2022-12-25T15:28:52.015Z,100.00
2022-12-25T15:31:29.840Z,100.00
2022-12-25T15:33:58.605Z,100.00
2022-12-25T15:36:26.422Z,100.00
2022-12-25T15:38:54.020Z,100.00
2022-12-25T15:41:44.099Z,100.00
2022-12-25T15:44:12.089Z,100.00
2022-12-25T15:46:39.451Z,100.00
2022-12-25T15:49:06.073Z,100.00
2022-12-25T15:51:32.721Z,100.00
2022-12-25T15:53:59.660Z,100.00
2022-12-25T15:56:27.103Z,100.00
2022-12-25T15:58:53.723Z,100.00
2022-12-25T16:01:21.205Z,100.00
2022-12-25T16:03:47.921Z,100.00
2022-12-25T16:06:18.673Z,100.00
2022-12-25T16:08:45.774Z,100.00
2022-12-25T16:11:12.459Z,100.00
2022-12-25T16:13:39.141Z,100.00
2022-12-25T16:16:06.956Z,100.00
2022-12-25T16:18:33.855Z,100.00
2022-12-25T16:21:00.518Z,100.00
2022-12-25T16:23:27.233Z,100.00
2022-12-25T16:25:53.904Z,100.00
2022-12-25T16:28:20.528Z,100.00
2022-12-25T16:30:47.226Z,100.00
2022-12-25T16:33:13.861Z,100.00
2022-12-25T16:35:40.487Z,100.00
2022-12-25T16:38:07.132Z,100.00
2022-12-25T16:40:34.105Z,100.00
2022-12-25T16:43:00.771Z,100.00
2022-12-25T16:45:27.524Z,100.00
2022-12-25T16:47:54.107Z,100.00
2022-12-25T16:50:20.775Z,100.00
2022-12-25T16:52:47.338Z,100.00
2022-12-25T16:55:13.927Z,100.00
2022-12-25T16:57:40.515Z,100.00
2022-12-25T17:00:08.685Z,100.00
2022-12-25T17:02:35.456Z,100.00
2022-12-25T17:05:02.321Z,100.00
2022-12-25T17:07:28.886Z,100.00
2022-12-25T17:09:56.991Z,100.00
2022-12-25T17:12:23.613Z,100.00
2022-12-25T17:14:50.213Z,100.00
2022-12-25T17:17:16.792Z,100.00
2022-12-25T17:19:43.548Z,100.00
2022-12-25T17:22:10.599Z,100.00
2022-12-25T17:24:39.894Z,100.00
2022-12-25T17:27:08.620Z,100.00
2022-12-25T17:29:42.653Z,100.00
2022-12-25T17:32:10.726Z,100.00
2022-12-25T17:34:37.864Z,100.00
2022-12-25T17:37:06.480Z,100.00
2022-12-25T17:39:33.119Z,100.00
2022-12-25T17:41:59.750Z,100.00
2022-12-25T17:44:27.296Z,100.00
2022-12-25T17:46:53.986Z,100.00
2022-12-25T17:49:22.664Z,100.00
2022-12-25T17:51:49.286Z,100.00
2022-12-25T17:54:15.914Z,100.00
2022-12-25T17:56:42.547Z,100.00
2022-12-25T17:59:17.932Z,100.00
2022-12-25T18:01:45.848Z,100.00
2022-12-25T18:04:12.946Z,100.00
2022-12-25T18:06:39.601Z,100.00
2022-12-25T18:09:06.940Z,100.00
2022-12-25T18:11:33.621Z,100.00
2022-12-25T18:14:05.764Z,100.00
2022-12-25T18:16:37.094Z,100.00
2022-12-25T18:19:04.029Z,100.00
2022-12-25T18:21:30.963Z,100.00
2022-12-25T18:23:57.610Z,100.00
2022-12-25T18:26:25.924Z,100.00
2022-12-25T18:28:52.861Z,100.00
2022-12-25T18:31:21.957Z,100.00
2022-12-25T18:33:49.196Z,100.00
2022-12-25T18:36:20.249Z,100.00
2022-12-25T18:38:48.268Z,100.00
2022-12-25T18:41:15.018Z,100.00
2022-12-25T18:43:52.947Z,100.00
2022-12-25T18:46:26.676Z,100.00
2022-12-25T18:48:55.928Z,100.00
2022-12-25T18:51:22.767Z,100.00
2022-12-25T18:53:49.867Z,100.00
2022-12-25T18:56:18.140Z,100.00
2022-12-25T18:58:46.308Z,100.00
2022-12-25T19:01:21.575Z,100.00
2022-12-25T19:03:49.475Z,100.00
2022-12-25T19:06:22.142Z,100.00
2022-12-25T19:08:49.202Z,100.00
2022-12-25T19:11:16.417Z,100.00
2022-12-25T19:13:43.418Z,100.00
2022-12-25T19:16:10.677Z,100.00
2022-12-25T19:18:38.289Z,100.00
2022-12-25T19:21:07.266Z,100.00
2022-12-25T19:23:34.740Z,100.00
2022-12-25T19:26:04.070Z,100.00
2022-12-25T19:28:30.697Z,100.00
2022-12-25T19:31:00.769Z,100.00
2022-12-25T19:33:27.902Z,100.00
2022-12-25T19:35:59.415Z,100.00
2022-12-25T19:38:25.987Z,100.00
2022-12-25T19:41:01.939Z,100.00
2022-12-25T19:43:30.388Z,100.00
2022-12-25T19:45:59.505Z,100.00
2022-12-25T19:48:26.135Z,100.00
2022-12-25T19:50:52.997Z,100.00
2022-12-25T19:53:23.171Z,100.00
2022-12-25T19:55:53.729Z,100.00
2022-12-25T19:58:22.232Z,100.00
2022-12-25T20:01:05.866Z,100.00
2022-12-25T20:03:45.343Z,100.00
2022-12-25T20:06:21.856Z,100.00
2022-12-25T20:08:50.691Z,100.00
2022-12-25T20:11:17.564Z,100.00
2022-12-25T20:13:44.785Z,100.00
2022-12-25T20:16:11.983Z,100.00
2022-12-25T20:18:39.657Z,100.00
2022-12-25T20:21:17.907Z,100.00
2022-12-25T20:23:46.512Z,100.00
2022-12-25T20:26:14.948Z,100.00
2022-12-25T20:28:42.350Z,100.00
2022-12-25T20:31:13.997Z,100.00
2022-12-25T20:33:40.934Z,100.00
2022-12-25T20:36:08.078Z,100.00
2022-12-25T20:38:35.190Z,100.00
2022-12-25T20:43:52.739Z,100.00
2022-12-25T20:46:19.688Z,100.00
2022-12-25T20:48:46.409Z,100.00
2022-12-25T20:51:14.421Z,100.00
2022-12-25T20:53:41.837Z,100.00
2022-12-25T20:56:10.489Z,100.00
2022-12-25T20:58:37.850Z,100.00
2022-12-25T21:01:07.205Z,100.00
2022-12-25T21:03:34.966Z,100.00
2022-12-25T21:06:01.932Z,100.00
2022-12-25T21:08:29.492Z,100.00
2022-12-25T21:11:00.771Z,100.00
2022-12-25T21:13:30.775Z,100.00
2022-12-25T21:15:58.072Z,100.00
2022-12-25T21:18:26.656Z,100.00
2022-12-25T21:20:56.582Z,100.00
2022-12-25T21:23:23.660Z,100.00
2022-12-25T21:25:50.250Z,100.00
2022-12-25T21:28:17.008Z,100.00
2022-12-25T21:30:43.723Z,100.00
2022-12-25T21:33:31.179Z,100.00
2022-12-25T21:36:11.442Z,100.00
2022-12-25T21:38:38.868Z,100.00
2022-12-25T21:41:07.699Z,100.00
2022-12-25T21:43:35.345Z,100.00
2022-12-25T21:46:07.689Z,100.00
2022-12-25T21:48:36.473Z,100.00
2022-12-25T21:51:24.024Z,100.00
2022-12-25T21:53:51.209Z,100.00
2022-12-25T21:56:18.324Z,100.00
2022-12-25T21:58:44.932Z,100.00
2022-12-25T22:01:11.849Z,100.00
2022-12-25T22:03:38.612Z,100.00
2022-12-25T22:06:24.149Z,100.00
2022-12-25T22:08:50.767Z,100.00
2022-12-25T22:11:35.613Z,100.00
2022-12-25T22:14:20.823Z,100.00
2022-12-25T22:17:26.223Z,100.00
2022-12-25T22:19:52.936Z,100.00
2022-12-25T22:22:22.805Z,100.00
2022-12-25T22:24:51.291Z,100.00
2022-12-25T22:27:18.658Z,100.00
2022-12-25T22:29:45.399Z,100.00
2022-12-25T22:32:13.420Z,100.00
2022-12-25T22:34:40.112Z,100.00
2022-12-25T22:37:09.427Z,100.00
2022-12-25T22:39:36.236Z,100.00
2022-12-25T22:42:02.897Z,100.00
2022-12-25T22:44:31.156Z,100.00
2022-12-25T22:46:57.850Z,100.00
2022-12-25T22:49:25.755Z,100.00
2022-12-25T22:51:54.203Z,100.00
2022-12-25T22:54:22.160Z,100.00
2022-12-25T22:56:50.927Z,100.00
2022-12-25T22:59:20.332Z,100.00
2022-12-25T23:01:47.467Z,100.00
2022-12-25T23:04:14.183Z,100.00
2022-12-25T23:06:41.875Z,100.00
2022-12-25T23:09:09.129Z,100.00
2022-12-25T23:11:35.952Z,100.00
2022-12-25T23:14:21.809Z,100.00
2022-12-25T23:16:48.440Z,100.00
2022-12-25T23:19:33.640Z,100.00
2022-12-25T23:22:19.399Z,100.00
2022-12-25T23:25:04.218Z,100.00
2022-12-25T23:27:30.799Z,100.00
2022-12-25T23:29:57.360Z,100.00
2022-12-25T23:32:25.874Z,100.00
2022-12-25T23:34:52.808Z,100.00
2022-12-25T23:37:19.610Z,100.00
2022-12-25T23:39:46.776Z,100.00
2022-12-25T23:42:13.740Z,100.00
2022-12-25T23:44:40.315Z,100.00
2022-12-25T23:47:07.088Z,100.00
2022-12-25T23:49:33.760Z,100.00
2022-12-25T23:52:00.350Z,100.00
2022-12-25T23:54:29.750Z,100.00
2022-12-25T23:56:57.670Z,100.00
2022-12-25T23:59:28.568Z,100.00
